createdAt,value
2022-10-03T00:02:12.455Z,100.00
2022-10-03T00:04:59.048Z,100.00
2022-10-03T00:07:48.828Z,100.00
2022-10-03T00:10:29.314Z,100.00
2022-10-03T00:13:20.579Z,100.00
2022-10-03T00:15:57.030Z,100.00
2022-10-03T00:18:41.452Z,100.00
2022-10-03T00:21:28.541Z,100.00
2022-10-03T00:24:11.518Z,100.00
2022-10-03T00:26:48.631Z,100.00
2022-10-03T00:29:38.695Z,100.00
2022-10-03T00:32:21.222Z,100.00
2022-10-03T00:35:12.376Z,100.00
2022-10-03T00:37:50.561Z,100.00
2022-10-03T00:40:55.949Z,100.00
2022-10-03T00:43:57.219Z,100.00
2022-10-03T00:46:49.957Z,100.00
2022-10-03T00:49:49.748Z,100.00
2022-10-03T00:52:42.949Z,100.00
2022-10-03T00:55:26.275Z,100.00
2022-10-03T00:58:16.953Z,100.00
2022-10-03T01:00:53.759Z,100.00
2022-10-03T01:03:49.256Z,100.00
2022-10-03T01:06:36.968Z,100.00
2022-10-03T01:09:23.929Z,100.00
2022-10-03T01:12:14.053Z,100.00
2022-10-03T01:15:05.291Z,100.00
2022-10-03T01:17:48.635Z,100.00
2022-10-03T01:20:30.394Z,100.00
2022-10-03T01:23:28.644Z,100.00
2022-10-03T01:26:22.478Z,100.00
2022-10-03T01:29:22.877Z,100.00
2022-10-03T01:31:59.089Z,100.00
2022-10-03T01:34:33.947Z,100.00
2022-10-03T01:37:12.311Z,100.00
2022-10-03T01:39:51.957Z,100.00
2022-10-03T01:42:38.284Z,100.00
2022-10-03T01:45:31.128Z,100.00
2022-10-03T01:48:05.120Z,100.00
2022-10-03T01:50:41.593Z,100.00
2022-10-03T01:53:17.751Z,100.00
2022-10-03T01:55:58.885Z,100.00
2022-10-03T01:58:38.667Z,100.00
2022-10-03T02:01:15.002Z,100.00
2022-10-03T02:03:53.069Z,100.00
2022-10-03T02:06:32.611Z,100.00
2022-10-03T02:09:12.823Z,100.00
2022-10-03T02:11:57.566Z,100.00
2022-10-03T02:14:37.480Z,100.00
2022-10-03T02:17:19.133Z,100.00
2022-10-03T02:19:58.387Z,100.00
2022-10-03T02:22:34.220Z,100.00
2022-10-03T02:25:22.354Z,100.00
2022-10-03T02:28:16.407Z,100.00
2022-10-03T02:31:06.853Z,100.00
2022-10-03T02:33:57.201Z,100.00
2022-10-03T02:36:46.306Z,100.00
2022-10-03T02:39:46.134Z,100.00
2022-10-03T02:42:41.432Z,100.00
2022-10-03T02:45:32.371Z,100.00
2022-10-03T02:48:35.220Z,100.00
2022-10-03T02:51:33.758Z,100.00
2022-10-03T02:54:36.684Z,100.00
2022-10-03T02:57:37.695Z,100.00
2022-10-03T03:00:14.783Z,100.00
2022-10-03T03:03:11.904Z,100.00
2022-10-03T03:06:14.107Z,100.00
2022-10-03T03:09:10.202Z,100.00
2022-10-03T03:12:07.612Z,100.00
2022-10-03T03:15:18.488Z,100.00
2022-10-03T03:17:55.379Z,100.00
2022-10-03T03:20:57.608Z,100.00
2022-10-03T03:23:57.505Z,100.00
2022-10-03T03:26:51.249Z,100.00
2022-10-03T03:29:32.065Z,100.00
2022-10-03T03:32:13.871Z,100.00
2022-10-03T03:34:53.190Z,100.00
2022-10-03T03:37:29.177Z,100.00
2022-10-03T03:40:09.970Z,100.00
2022-10-03T03:43:00.446Z,100.00
2022-10-03T03:45:42.109Z,100.00
2022-10-03T03:48:31.235Z,100.00
2022-10-03T03:51:18.694Z,100.00
2022-10-03T03:54:05.878Z,100.00
2022-10-03T03:57:02.035Z,100.00
2022-10-03T03:59:50.674Z,100.00
2022-10-03T04:02:33.577Z,100.00
2022-10-03T04:05:16.025Z,100.00
2022-10-03T04:07:59.046Z,100.00
2022-10-03T04:10:45.513Z,100.00
2022-10-03T04:13:37.118Z,100.00
2022-10-03T04:16:46.878Z,100.00
2022-10-03T04:19:27.466Z,100.00
2022-10-03T04:22:24.271Z,100.00
2022-10-03T04:25:26.467Z,100.00
2022-10-03T04:28:21.630Z,100.00
2022-10-03T04:31:06.978Z,100.00
2022-10-03T04:33:55.221Z,100.00
2022-10-03T04:37:01.867Z,100.00
2022-10-03T04:39:40.757Z,100.00
2022-10-03T04:42:27.322Z,100.00
2022-10-03T04:45:15.403Z,100.00
2022-10-03T04:47:50.852Z,100.00
2022-10-03T04:50:40.927Z,100.00
2022-10-03T04:53:31.652Z,100.00
2022-10-03T04:56:14.743Z,100.00
2022-10-03T04:58:53.789Z,100.00
2022-10-03T05:01:29.998Z,100.00
2022-10-03T05:04:10.845Z,100.00
2022-10-03T05:06:51.217Z,100.00
2022-10-03T05:09:33.683Z,100.00
2022-10-03T05:12:13.879Z,100.00
2022-10-03T05:15:10.942Z,100.00
2022-10-03T05:17:51.835Z,100.00
2022-10-03T05:20:38.653Z,100.00
2022-10-03T05:23:22.236Z,100.00
2022-10-03T05:26:23.262Z,100.00
2022-10-03T05:29:00.074Z,100.00
2022-10-03T05:31:47.485Z,100.00
2022-10-03T05:34:29.035Z,100.00
2022-10-03T05:37:25.779Z,100.00
2022-10-03T05:40:03.388Z,100.00
2022-10-03T05:42:42.354Z,100.00
2022-10-03T05:45:30.576Z,100.00
2022-10-03T05:48:17.297Z,100.00
2022-10-03T05:51:13.583Z,100.00
2022-10-03T05:54:22.917Z,100.00
2022-10-03T05:57:18.305Z,100.00
2022-10-03T06:00:08.396Z,100.00
2022-10-03T06:03:09.742Z,100.00
2022-10-03T06:06:01.897Z,100.00
2022-10-03T06:08:53.042Z,100.00
2022-10-03T06:11:59.176Z,100.00
2022-10-03T06:14:42.314Z,100.00
2022-10-03T06:17:31.435Z,100.00
2022-10-03T06:20:14.886Z,100.00
2022-10-03T06:23:14.855Z,100.00
2022-10-03T06:26:07.356Z,100.00
2022-10-03T06:29:05.756Z,100.00
2022-10-03T06:32:04.819Z,100.00
2022-10-03T06:34:55.444Z,100.00
2022-10-03T06:38:02.758Z,100.00
2022-10-03T06:41:04.221Z,100.00
2022-10-03T06:43:57.337Z,100.00
2022-10-03T06:47:02.802Z,100.00
2022-10-03T06:49:43.255Z,100.00
2022-10-03T06:52:33.799Z,100.00
2022-10-03T06:55:34.450Z,100.00
2022-10-03T06:58:35.558Z,100.00
2022-10-03T07:01:28.996Z,100.00
2022-10-03T07:04:19.683Z,100.00
2022-10-03T07:07:17.465Z,100.00
2022-10-03T07:10:29.173Z,100.00
2022-10-03T07:13:39.509Z,100.00
2022-10-03T07:16:36.806Z,100.00
2022-10-03T07:19:27.206Z,100.00
2022-10-03T07:22:39.969Z,100.00
2022-10-03T07:25:59.891Z,100.00
2022-10-03T07:28:48.804Z,100.00
2022-10-03T07:31:30.875Z,100.00
2022-10-03T07:34:34.131Z,100.00
2022-10-03T07:37:47.053Z,100.00
2022-10-03T07:40:47.730Z,100.00
2022-10-03T07:44:04.117Z,100.00
2022-10-03T07:47:12.335Z,100.00
2022-10-03T07:50:03.829Z,100.00
2022-10-03T07:53:02.771Z,100.00
2022-10-03T07:55:55.117Z,100.00
2022-10-03T07:58:43.265Z,100.00
2022-10-03T08:01:39.264Z,100.00
2022-10-03T08:04:35.579Z,100.00
2022-10-03T08:07:29.591Z,100.00
2022-10-03T08:10:22.317Z,100.00
2022-10-03T08:13:10.590Z,100.00
2022-10-03T08:15:56.298Z,100.00
2022-10-03T08:18:56.064Z,100.00
2022-10-03T08:21:32.717Z,100.00
2022-10-03T08:24:26.103Z,100.00
2022-10-03T08:27:16.604Z,100.00
2022-10-03T08:30:08.524Z,100.00
2022-10-03T08:33:07.399Z,100.00
2022-10-03T08:36:12.640Z,100.00
2022-10-03T08:39:01.544Z,100.00
2022-10-03T08:42:04.065Z,100.00
2022-10-03T08:45:16.283Z,100.00
2022-10-03T08:48:25.153Z,100.00
2022-10-03T08:51:18.597Z,100.00
2022-10-03T08:54:18.405Z,100.00
2022-10-03T08:57:09.732Z,100.00
2022-10-03T09:00:09.318Z,100.00
2022-10-03T09:03:33.951Z,100.00
2022-10-03T09:07:12.251Z,100.00
2022-10-03T09:10:10.383Z,100.00
2022-10-03T09:13:14.515Z,100.00
2022-10-03T09:16:18.376Z,100.00
2022-10-03T09:19:08.892Z,100.00
2022-10-03T09:22:10.130Z,100.00
2022-10-03T09:25:06.859Z,100.00
2022-10-03T09:28:01.495Z,100.00
2022-10-03T09:30:47.625Z,100.00
2022-10-03T09:33:55.400Z,100.00
2022-10-03T09:37:04.086Z,100.00
2022-10-03T09:40:02.314Z,100.00
2022-10-03T09:43:05.644Z,100.00
2022-10-03T09:46:08.479Z,100.00
2022-10-03T09:49:10.835Z,100.00
2022-10-03T09:51:51.762Z,98.10
2022-10-03T09:54:51.970Z,98.91
2022-10-03T09:57:57.317Z,100.00
2022-10-03T10:00:30.373Z,100.00
2022-10-03T10:03:42.730Z,100.00
2022-10-03T10:06:30.614Z,100.00
2022-10-03T10:09:30.148Z,100.00
2022-10-03T10:12:25.572Z,100.00
2022-10-03T10:15:24.056Z,100.00
2022-10-03T10:18:18.836Z,100.00
2022-10-03T10:21:24.515Z,100.00
2022-10-03T10:24:07.369Z,100.00
2022-10-03T10:27:11.073Z,100.00
2022-10-03T10:30:03.840Z,100.00
2022-10-03T10:33:17.377Z,99.39
2022-10-03T10:36:28.637Z,99.58
2022-10-03T10:39:24.536Z,97.80
2022-10-03T10:42:37.803Z,98.32
2022-10-03T10:45:39.120Z,99.20
2022-10-03T10:48:40.772Z,100.00
2022-10-03T10:51:55.270Z,100.00
2022-10-03T10:55:03.830Z,100.00
2022-10-03T10:58:09.581Z,100.00
2022-10-03T11:01:12.547Z,99.40
2022-10-03T11:04:21.990Z,99.09
2022-10-03T11:07:19.674Z,97.91
2022-10-03T11:10:32.188Z,96.56
2022-10-03T11:13:37.362Z,96.20
2022-10-03T11:16:38.495Z,96.91
2022-10-03T11:19:53.099Z,95.13
2022-10-03T11:23:08.710Z,93.24
2022-10-03T11:26:11.769Z,94.88
2022-10-03T11:29:14.023Z,93.82
2022-10-03T11:32:31.502Z,89.36
2022-10-03T11:35:32.311Z,83.82
2022-10-03T11:38:14.113Z,84.99
2022-10-03T11:40:58.027Z,87.03
2022-10-03T11:44:01.504Z,87.81
2022-10-03T11:46:49.766Z,87.19
2022-10-03T11:49:37.220Z,83.51
2022-10-03T11:52:17.941Z,81.88
2022-10-03T11:54:54.653Z,77.42
2022-10-03T11:57:33.620Z,70.32
2022-10-03T12:00:08.668Z,66.66
2022-10-03T12:02:57.378Z,64.67
2022-10-03T12:05:40.485Z,65.45
2022-10-03T12:08:49.775Z,65.44
2022-10-03T12:11:29.282Z,64.70
2022-10-03T12:14:17.150Z,68.13
2022-10-03T12:17:01.455Z,69.67
2022-10-03T12:19:36.775Z,70.88
2022-10-03T12:22:16.643Z,74.95
2022-10-03T12:24:48.199Z,76.61
2022-10-03T12:27:30.364Z,77.54
2022-10-03T12:30:06.531Z,77.70
2022-10-03T12:32:49.656Z,79.35
2022-10-03T12:35:36.317Z,77.53
2022-10-03T12:38:22.916Z,77.61
2022-10-03T12:41:03.802Z,78.37
2022-10-03T12:43:52.303Z,78.91
2022-10-03T12:46:33.504Z,77.81
2022-10-03T12:49:08.117Z,76.28
2022-10-03T12:51:50.822Z,74.72
2022-10-03T12:54:40.738Z,71.78
2022-10-03T12:57:36.250Z,70.47
2022-10-03T13:00:17.418Z,71.26
2022-10-03T13:02:58.378Z,70.65
2022-10-03T13:05:44.117Z,66.81
2022-10-03T13:08:30.540Z,64.54
2022-10-03T13:11:11.826Z,66.12
2022-10-03T13:13:53.287Z,65.48
2022-10-03T13:16:31.965Z,66.10
2022-10-03T13:19:06.737Z,63.98
2022-10-03T13:22:03.594Z,66.01
2022-10-03T13:24:40.621Z,65.77
2022-10-03T13:27:30.550Z,62.03
2022-10-03T13:30:09.769Z,62.27
2022-10-03T13:32:46.101Z,65.26
2022-10-03T13:35:37.286Z,67.33
2022-10-03T13:38:26.618Z,67.60
2022-10-03T13:41:05.454Z,68.11
2022-10-03T13:43:38.868Z,67.38
2022-10-03T13:46:16.583Z,67.44
2022-10-03T13:49:01.765Z,65.58
2022-10-03T13:51:44.787Z,65.48
2022-10-03T13:54:24.097Z,65.08
2022-10-03T13:56:59.495Z,64.88
2022-10-03T13:59:54.414Z,65.06
2022-10-03T14:03:08.798Z,66.40
2022-10-03T14:05:53.340Z,66.43
2022-10-03T14:08:38.629Z,66.62
2022-10-03T14:11:28.003Z,67.62
2022-10-03T14:14:35.999Z,67.19
2022-10-03T14:17:14.404Z,65.97
2022-10-03T14:19:58.666Z,65.69
2022-10-03T14:22:45.500Z,64.75
2022-10-03T14:25:28.279Z,65.26
2022-10-03T14:28:05.834Z,66.54
2022-10-03T14:31:05.156Z,65.81
2022-10-03T14:33:43.959Z,66.46
2022-10-03T14:36:27.285Z,68.92
2022-10-03T14:39:09.242Z,67.71
2022-10-03T14:41:48.722Z,66.40
2022-10-03T14:44:23.118Z,62.47
2022-10-03T14:47:00.454Z,65.21
2022-10-03T14:49:53.528Z,63.96
2022-10-03T14:52:30.972Z,66.38
2022-10-03T14:55:16.029Z,66.66
2022-10-03T14:58:09.830Z,68.46
2022-10-03T15:00:45.454Z,65.99
2022-10-03T15:03:45.790Z,65.60
2022-10-03T15:06:38.127Z,67.75
2022-10-03T15:09:13.526Z,67.35
2022-10-03T15:11:53.728Z,68.79
2022-10-03T15:14:25.418Z,66.18
2022-10-03T15:16:57.745Z,67.99
2022-10-03T15:19:33.033Z,68.51
2022-10-03T15:22:10.357Z,69.86
2022-10-03T15:24:42.852Z,70.34
2022-10-03T15:27:22.551Z,69.63
2022-10-03T15:29:57.589Z,67.21
2022-10-03T15:32:31.133Z,68.94
2022-10-03T15:35:03.845Z,70.37
2022-10-03T15:37:37.584Z,70.54
2022-10-03T15:40:12.763Z,72.25
2022-10-03T15:43:05.219Z,71.32
2022-10-03T15:45:37.479Z,70.61
2022-10-03T15:48:13.321Z,71.36
2022-10-03T15:50:47.594Z,72.01
2022-10-03T15:53:36.025Z,73.58
2022-10-03T15:56:16.038Z,73.53
2022-10-03T15:58:53.075Z,74.17
2022-10-03T16:01:25.750Z,72.09
2022-10-03T16:03:59.483Z,73.24
2022-10-03T16:06:37.159Z,74.16
2022-10-03T16:09:17.055Z,72.41
2022-10-03T16:11:57.226Z,74.56
2022-10-03T16:14:34.592Z,74.48
2022-10-03T16:17:13.074Z,76.68
2022-10-03T16:19:45.290Z,79.02
2022-10-03T16:22:25.358Z,78.29
2022-10-03T16:25:08.129Z,77.96
2022-10-03T16:27:42.579Z,79.09
2022-10-03T16:30:25.165Z,78.34
2022-10-03T16:33:04.765Z,78.68
2022-10-03T16:35:39.090Z,80.01
2022-10-03T16:38:27.385Z,80.18
2022-10-03T16:41:01.298Z,81.29
2022-10-03T16:43:34.816Z,82.22
2022-10-03T16:46:15.220Z,82.40
2022-10-03T16:48:59.679Z,82.03
2022-10-03T16:51:39.249Z,82.55
2022-10-03T16:54:14.966Z,82.40
2022-10-03T16:56:49.126Z,83.40
2022-10-03T16:59:21.902Z,84.63
2022-10-03T17:01:58.621Z,84.22
2022-10-03T17:04:32.956Z,84.97
2022-10-03T17:07:05.033Z,84.66
2022-10-03T17:09:43.535Z,85.29
2022-10-03T17:12:20.301Z,85.42
2022-10-03T17:14:51.643Z,85.32
2022-10-03T17:17:33.089Z,85.95
2022-10-03T17:20:08.631Z,86.35
2022-10-03T17:22:43.482Z,86.89
2022-10-03T17:25:39.502Z,87.58
2022-10-03T17:28:16.896Z,87.68
2022-10-03T17:30:51.257Z,89.01
2022-10-03T17:33:28.709Z,87.04
2022-10-03T17:36:08.016Z,89.03
2022-10-03T17:38:50.114Z,89.46
2022-10-03T17:41:24.460Z,88.74
2022-10-03T17:44:06.007Z,89.17
2022-10-03T17:46:46.033Z,89.40
2022-10-03T17:49:31.749Z,90.78
2022-10-03T17:52:02.014Z,91.47
2022-10-03T17:54:36.110Z,91.68
2022-10-03T17:57:11.038Z,92.31
2022-10-03T17:59:50.779Z,92.65
2022-10-03T18:02:25.632Z,93.13
2022-10-03T18:05:06.409Z,93.20
2022-10-03T18:07:38.639Z,91.96
2022-10-03T18:10:19.330Z,92.66
2022-10-03T18:12:53.864Z,92.99
2022-10-03T18:15:48.483Z,93.14
2022-10-03T18:18:56.588Z,92.31
2022-10-03T18:21:39.645Z,93.63
2022-10-03T18:24:36.393Z,95.38
2022-10-03T18:27:26.580Z,95.48
2022-10-03T18:30:05.836Z,95.92
2022-10-03T18:32:40.477Z,94.95
2022-10-03T18:35:16.802Z,94.63
2022-10-03T18:38:08.148Z,95.37
2022-10-03T18:40:46.631Z,95.64
2022-10-03T18:43:29.379Z,96.32
2022-10-03T18:46:07.872Z,97.54
2022-10-03T18:48:44.089Z,97.92
2022-10-03T18:51:19.311Z,98.89
2022-10-03T18:53:58.372Z,98.50
2022-10-03T18:56:29.923Z,98.81
2022-10-03T18:59:18.699Z,100.00
2022-10-03T19:01:55.040Z,99.71
2022-10-03T19:04:39.295Z,98.47
2022-10-03T19:07:19.914Z,98.70
2022-10-03T19:10:14.493Z,98.44
2022-10-03T19:12:49.325Z,99.24
2022-10-03T19:15:24.409Z,100.00
2022-10-03T19:18:09.642Z,100.00
2022-10-03T19:20:44.277Z,99.35
2022-10-03T19:23:18.994Z,98.56
2022-10-03T19:25:58.788Z,97.74
2022-10-03T19:28:33.751Z,96.80
2022-10-03T19:31:08.574Z,96.97
2022-10-03T19:33:46.573Z,96.87
2022-10-03T19:36:20.004Z,97.18
2022-10-03T19:38:51.117Z,98.64
2022-10-03T19:41:31.236Z,99.76
2022-10-03T19:44:06.903Z,99.76
2022-10-03T19:46:55.185Z,98.37
2022-10-03T19:49:31.996Z,96.76
2022-10-03T19:52:19.324Z,96.81
2022-10-03T19:54:57.459Z,98.75
2022-10-03T19:57:40.814Z,100.00
2022-10-03T20:00:24.303Z,100.00
2022-10-03T20:03:01.678Z,100.00
2022-10-03T20:05:39.588Z,100.00
2022-10-03T20:08:24.127Z,100.00
2022-10-03T20:11:07.497Z,99.60
2022-10-03T20:13:46.980Z,99.24
2022-10-03T20:16:18.727Z,98.40
2022-10-03T20:18:52.093Z,98.84
2022-10-03T20:21:25.139Z,99.63
2022-10-03T20:23:56.847Z,100.00
2022-10-03T20:26:36.208Z,100.00
2022-10-03T20:29:23.133Z,100.00
2022-10-03T20:31:54.345Z,100.00
2022-10-03T20:34:27.254Z,100.00
2022-10-03T20:37:11.025Z,100.00
2022-10-03T20:39:44.948Z,100.00
2022-10-03T20:42:19.691Z,99.62
2022-10-03T20:45:04.531Z,99.36
2022-10-03T20:47:56.826Z,100.00
2022-10-03T20:50:29.788Z,100.00
2022-10-03T20:53:02.566Z,100.00
2022-10-03T20:55:36.181Z,100.00
2022-10-03T20:58:30.379Z,100.00
2022-10-03T21:01:08.934Z,100.00
2022-10-03T21:03:43.839Z,100.00
2022-10-03T21:06:24.625Z,100.00
2022-10-03T21:08:57.110Z,100.00
2022-10-03T21:11:30.938Z,100.00
2022-10-03T21:14:03.323Z,100.00
2022-10-03T21:16:38.788Z,100.00
2022-10-03T21:19:18.841Z,100.00
2022-10-03T21:21:54.389Z,100.00
2022-10-03T21:24:31.468Z,100.00
2022-10-03T21:27:05.571Z,100.00
2022-10-03T21:29:37.023Z,100.00
2022-10-03T21:32:29.956Z,100.00
2022-10-03T21:35:10.449Z,100.00
2022-10-03T21:37:47.424Z,100.00
2022-10-03T21:40:33.718Z,100.00
2022-10-03T21:43:14.665Z,100.00
2022-10-03T21:45:54.597Z,100.00
2022-10-03T21:48:35.597Z,100.00
2022-10-03T21:51:15.131Z,100.00
2022-10-03T21:53:53.941Z,100.00
2022-10-03T21:56:45.679Z,100.00
2022-10-03T21:59:38.329Z,100.00
2022-10-03T22:02:18.251Z,100.00
2022-10-03T22:04:57.041Z,100.00
2022-10-03T22:07:38.143Z,100.00
2022-10-03T22:10:21.450Z,100.00
2022-10-03T22:12:54.662Z,100.00
2022-10-03T22:15:32.839Z,100.00
2022-10-03T22:18:06.609Z,100.00
2022-10-03T22:20:40.336Z,100.00
2022-10-03T22:23:32.796Z,100.00
2022-10-03T22:26:14.649Z,100.00
2022-10-03T22:28:56.039Z,100.00
2022-10-03T22:31:34.076Z,100.00
2022-10-03T22:34:22.149Z,100.00
2022-10-03T22:36:54.893Z,100.00
2022-10-03T22:39:25.686Z,100.00
2022-10-03T22:42:00.456Z,100.00
2022-10-03T22:44:33.530Z,100.00
2022-10-03T22:47:10.012Z,100.00
2022-10-03T22:49:44.311Z,100.00
2022-10-03T22:52:21.558Z,100.00
2022-10-03T22:54:53.685Z,100.00
2022-10-03T22:57:25.653Z,100.00
2022-10-03T22:59:59.756Z,100.00
2022-10-03T23:02:33.351Z,100.00
2022-10-03T23:05:06.711Z,100.00
2022-10-03T23:07:58.108Z,100.00
2022-10-03T23:10:50.704Z,100.00
2022-10-03T23:13:27.968Z,100.00
2022-10-03T23:16:08.197Z,100.00
2022-10-03T23:19:08.424Z,100.00
2022-10-03T23:21:48.067Z,100.00
2022-10-03T23:24:28.852Z,100.00
2022-10-03T23:27:28.315Z,100.00
2022-10-03T23:30:33.793Z,100.00
2022-10-03T23:33:03.839Z,100.00
2022-10-03T23:35:41.903Z,100.00
2022-10-03T23:38:41.427Z,100.00
2022-10-03T23:41:17.293Z,100.00
2022-10-03T23:43:52.230Z,100.00
2022-10-03T23:46:25.590Z,100.00
2022-10-03T23:48:57.926Z,100.00
2022-10-03T23:51:32.043Z,100.00
2022-10-03T23:54:04.922Z,100.00
2022-10-03T23:56:41.300Z,100.00
2022-10-03T23:59:25.448Z,100.00
